createdAt,value
2022-11-26T00:02:30.805Z,9.97
2022-11-26T00:04:59.998Z,10.64
2022-11-26T00:07:31.910Z,11.17
2022-11-26T00:10:02.377Z,11.37
2022-11-26T00:12:35.182Z,10.73
2022-11-26T00:15:16.130Z,9.97
2022-11-26T00:17:44.617Z,9.34
2022-11-26T00:20:13.302Z,8.92
2022-11-26T00:22:53.858Z,8.84
2022-11-26T00:25:25.511Z,10.09
2022-11-26T00:27:57.552Z,11.28
2022-11-26T00:30:31.097Z,11.98
2022-11-26T00:33:03.560Z,12.07
2022-11-26T00:35:31.841Z,11.25
2022-11-26T00:38:00.926Z,10.44
2022-11-26T00:40:33.866Z,9.82
2022-11-26T00:43:02.410Z,9.34
2022-11-26T00:45:31.935Z,9.20
2022-11-26T00:48:02.035Z,10.03
2022-11-26T00:50:37.353Z,10.87
2022-11-26T00:53:06.962Z,11.60
2022-11-26T00:55:40.096Z,11.93
2022-11-26T00:58:28.307Z,12.03
2022-11-26T01:00:59.522Z,11.74
2022-11-26T01:03:28.641Z,10.94
2022-11-26T01:05:59.881Z,10.18
2022-11-26T01:08:32.893Z,9.57
2022-11-26T01:11:03.577Z,9.22
2022-11-26T01:13:32.607Z,9.62
2022-11-26T01:16:02.859Z,10.30
2022-11-26T01:18:35.417Z,10.82
2022-11-26T01:21:03.670Z,11.22
2022-11-26T01:23:32.043Z,11.44
2022-11-26T01:26:06.079Z,11.63
2022-11-26T01:28:35.371Z,11.73
2022-11-26T01:31:03.760Z,11.79
2022-11-26T01:33:31.931Z,11.77
2022-11-26T01:36:00.210Z,11.75
2022-11-26T01:38:28.468Z,11.90
2022-11-26T01:41:12.626Z,12.18
2022-11-26T01:43:43.558Z,12.33
2022-11-26T01:46:22.629Z,12.29
2022-11-26T01:48:51.385Z,12.08
2022-11-26T01:51:28.683Z,12.03
2022-11-26T01:54:01.146Z,12.02
2022-11-26T01:56:37.725Z,11.89
2022-11-26T01:59:21.238Z,11.82
2022-11-26T02:01:51.947Z,11.81
2022-11-26T02:04:25.194Z,12.08
2022-11-26T02:06:55.897Z,12.46
2022-11-26T02:09:26.846Z,12.61
2022-11-26T02:11:56.158Z,12.56
2022-11-26T02:14:32.610Z,12.50
2022-11-26T02:17:22.406Z,12.39
2022-11-26T02:20:21.865Z,12.50
2022-11-26T02:22:50.183Z,12.86
2022-11-26T02:25:52.980Z,12.90
2022-11-26T02:29:01.598Z,12.98
2022-11-26T02:31:53.515Z,13.69
2022-11-26T02:34:36.979Z,13.76
2022-11-26T02:37:16.591Z,12.57
2022-11-26T02:39:47.217Z,11.47
2022-11-26T02:42:32.110Z,10.66
2022-11-26T02:45:11.748Z,10.56
2022-11-26T02:47:43.186Z,11.74
2022-11-26T02:50:27.640Z,12.43
2022-11-26T02:52:58.681Z,12.57
2022-11-26T02:55:33.512Z,12.58
2022-11-26T02:58:02.617Z,12.82
2022-11-26T03:00:34.373Z,12.84
2022-11-26T03:03:05.325Z,13.02
2022-11-26T03:05:36.906Z,13.45
2022-11-26T03:08:07.322Z,13.52
2022-11-26T03:10:35.872Z,12.69
2022-11-26T03:13:04.253Z,11.76
2022-11-26T03:15:32.647Z,11.03
2022-11-26T03:18:00.903Z,10.73
2022-11-26T03:20:29.184Z,11.34
2022-11-26T03:22:57.459Z,11.80
2022-11-26T03:25:25.738Z,12.66
2022-11-26T03:27:54.836Z,13.24
2022-11-26T03:30:23.492Z,13.42
2022-11-26T03:32:51.885Z,13.39
2022-11-26T03:35:21.812Z,12.71
2022-11-26T03:37:50.398Z,11.77
2022-11-26T03:40:19.851Z,10.99
2022-11-26T03:42:48.068Z,10.52
2022-11-26T03:45:16.459Z,10.86
2022-11-26T03:47:44.722Z,11.32
2022-11-26T03:50:13.000Z,11.89
2022-11-26T03:52:41.299Z,12.33
2022-11-26T03:55:10.069Z,12.32
2022-11-26T03:57:38.651Z,12.26
2022-11-26T04:00:09.283Z,12.13
2022-11-26T04:02:37.861Z,12.31
2022-11-26T04:05:07.069Z,12.65
2022-11-26T04:07:35.309Z,12.87
2022-11-26T04:10:04.941Z,12.89
2022-11-26T04:12:33.223Z,12.85
2022-11-26T04:15:01.491Z,13.03
2022-11-26T04:17:29.775Z,13.28
2022-11-26T04:19:58.050Z,12.97
2022-11-26T04:22:26.444Z,12.06
2022-11-26T04:24:54.705Z,11.32
2022-11-26T04:27:22.988Z,11.68
2022-11-26T04:29:51.466Z,12.47
2022-11-26T04:32:19.746Z,12.84
2022-11-26T04:34:48.426Z,12.88
2022-11-26T04:37:16.708Z,12.79
2022-11-26T04:39:45.059Z,12.84
2022-11-26T04:42:13.503Z,12.87
2022-11-26T04:44:41.864Z,12.88
2022-11-26T04:47:10.228Z,12.85
2022-11-26T04:49:38.499Z,12.69
2022-11-26T04:52:06.978Z,12.64
2022-11-26T04:54:35.448Z,12.69
2022-11-26T04:57:04.050Z,12.76
2022-11-26T04:59:32.522Z,12.84
2022-11-26T05:02:01.720Z,12.80
2022-11-26T05:04:30.410Z,12.88
2022-11-26T05:06:58.796Z,12.87
2022-11-26T05:09:27.166Z,12.75
2022-11-26T05:11:55.653Z,12.70
2022-11-26T05:14:24.281Z,12.73
2022-11-26T05:16:52.803Z,12.77
2022-11-26T05:19:21.190Z,12.85
2022-11-26T05:21:49.672Z,12.90
2022-11-26T05:24:18.360Z,12.93
2022-11-26T05:26:46.745Z,13.09
2022-11-26T05:29:15.313Z,13.08
2022-11-26T05:31:44.057Z,13.00
2022-11-26T05:34:12.491Z,12.99
2022-11-26T05:36:41.216Z,13.08
2022-11-26T05:39:09.650Z,13.08
2022-11-26T05:41:38.755Z,13.07
2022-11-26T05:44:07.438Z,12.98
2022-11-26T05:46:41.646Z,12.82
2022-11-26T05:49:10.647Z,12.71
2022-11-26T05:51:38.934Z,12.90
2022-11-26T05:54:07.833Z,13.28
2022-11-26T05:56:36.595Z,13.54
2022-11-26T05:59:05.503Z,13.46
2022-11-26T06:01:33.875Z,12.63
2022-11-26T06:04:02.412Z,11.67
2022-11-26T06:06:31.043Z,11.21
2022-11-26T06:08:59.621Z,11.79
2022-11-26T06:11:29.124Z,12.05
2022-11-26T06:13:57.616Z,12.14
2022-11-26T06:16:25.932Z,12.22
2022-11-26T06:18:54.716Z,12.24
2022-11-26T06:21:23.369Z,12.20
2022-11-26T06:23:57.628Z,12.18
2022-11-26T06:26:27.810Z,12.46
2022-11-26T06:28:56.500Z,12.90
2022-11-26T06:31:24.930Z,12.95
2022-11-26T06:33:55.551Z,12.67
2022-11-26T06:36:24.808Z,12.26
2022-11-26T06:38:53.380Z,12.03
2022-11-26T06:41:21.655Z,11.78
2022-11-26T06:43:50.555Z,11.69
2022-11-26T06:46:19.530Z,11.85
2022-11-26T06:48:48.442Z,12.43
2022-11-26T06:51:21.250Z,13.51
2022-11-26T06:53:49.791Z,14.33
2022-11-26T06:56:19.313Z,14.29
2022-11-26T06:58:49.318Z,13.12
2022-11-26T07:01:24.022Z,12.26
2022-11-26T07:03:53.254Z,12.86
2022-11-26T07:06:25.564Z,13.02
2022-11-26T07:08:57.048Z,12.87
2022-11-26T07:11:27.598Z,12.72
2022-11-26T07:13:57.341Z,12.58
2022-11-26T07:16:26.071Z,12.79
2022-11-26T07:19:02.362Z,12.68
2022-11-26T07:21:32.086Z,12.46
2022-11-26T07:24:00.654Z,12.36
2022-11-26T07:26:29.143Z,12.24
2022-11-26T07:28:57.708Z,12.09
2022-11-26T07:31:26.585Z,11.95
2022-11-26T07:33:56.577Z,11.85
2022-11-26T07:36:31.770Z,11.84
2022-11-26T07:39:03.827Z,12.01
2022-11-26T07:41:37.854Z,12.10
2022-11-26T07:44:06.654Z,12.13
2022-11-26T07:46:35.636Z,12.10
2022-11-26T07:49:04.689Z,12.17
2022-11-26T07:51:34.181Z,12.13
2022-11-26T07:54:07.717Z,12.19
2022-11-26T07:56:36.514Z,12.23
2022-11-26T07:59:06.908Z,12.46
2022-11-26T08:01:37.371Z,12.56
2022-11-26T08:04:07.168Z,12.75
2022-11-26T08:06:35.658Z,12.99
2022-11-26T08:09:04.963Z,13.14
2022-11-26T08:11:34.366Z,13.05
2022-11-26T08:14:05.992Z,12.84
2022-11-26T08:16:35.208Z,12.77
2022-11-26T08:19:08.490Z,12.63
2022-11-26T08:21:37.191Z,12.60
2022-11-26T08:24:07.818Z,12.40
2022-11-26T08:26:42.434Z,12.21
2022-11-26T08:29:13.502Z,11.94
2022-11-26T08:31:46.319Z,11.93
2022-11-26T08:34:17.018Z,11.89
2022-11-26T08:36:49.265Z,11.89
2022-11-26T08:39:19.137Z,11.97
2022-11-26T08:41:52.028Z,12.20
2022-11-26T08:44:22.375Z,12.26
2022-11-26T08:46:51.324Z,12.31
2022-11-26T08:49:20.466Z,12.16
2022-11-26T08:51:49.470Z,12.05
2022-11-26T08:54:17.943Z,11.84
2022-11-26T08:56:46.730Z,11.68
2022-11-26T08:59:16.440Z,11.69
2022-11-26T09:01:44.974Z,11.65
2022-11-26T09:04:13.515Z,11.61
2022-11-26T09:06:42.400Z,11.49
2022-11-26T09:09:14.616Z,11.41
2022-11-26T09:11:54.310Z,11.55
2022-11-26T09:14:26.156Z,11.69
2022-11-26T09:16:56.908Z,11.67
2022-11-26T09:19:27.103Z,11.59
2022-11-26T09:21:57.644Z,11.53
2022-11-26T09:24:27.300Z,11.68
2022-11-26T09:26:56.360Z,12.06
2022-11-26T09:29:26.107Z,12.38
2022-11-26T09:32:21.930Z,12.88
2022-11-26T09:34:48.438Z,13.33
2022-11-26T09:37:22.524Z,13.34
2022-11-26T09:39:54.977Z,13.29
2022-11-26T09:42:37.415Z,13.35
2022-11-26T09:45:36.229Z,13.64
2022-11-26T09:48:09.581Z,13.32
2022-11-26T09:50:38.948Z,12.87
2022-11-26T09:56:06.001Z,13.01
2022-11-26T09:58:41.929Z,13.44
2022-11-26T10:01:18.520Z,13.76
2022-11-26T10:03:49.836Z,13.71
2022-11-26T10:06:38.813Z,13.95
2022-11-26T10:09:41.215Z,14.22
2022-11-26T10:12:25.380Z,14.27
2022-11-26T10:14:57.854Z,14.31
2022-11-26T10:18:00.397Z,14.60
2022-11-26T10:20:44.255Z,14.76
2022-11-26T10:23:12.677Z,14.57
2022-11-26T10:26:07.782Z,13.49
2022-11-26T10:28:47.138Z,12.58
2022-11-26T10:31:31.671Z,12.86
2022-11-26T10:34:04.600Z,13.06
2022-11-26T10:36:39.871Z,13.33
2022-11-26T10:39:14.564Z,13.43
2022-11-26T10:41:43.733Z,13.25
2022-11-26T10:44:32.400Z,13.05
2022-11-26T10:47:19.024Z,12.62
2022-11-26T10:49:48.122Z,12.43
2022-11-26T10:52:20.903Z,12.40
2022-11-26T10:55:18.987Z,12.56
2022-11-26T10:57:55.256Z,12.93
2022-11-26T11:00:32.608Z,13.40
2022-11-26T11:03:03.988Z,13.88
2022-11-26T11:05:35.294Z,14.13
2022-11-26T11:08:04.314Z,13.90
2022-11-26T11:10:33.207Z,12.95
2022-11-26T11:13:13.170Z,12.13
2022-11-26T11:15:42.388Z,12.30
2022-11-26T11:18:13.909Z,12.80
2022-11-26T11:20:53.189Z,13.00
2022-11-26T11:23:45.834Z,13.01
2022-11-26T11:26:24.199Z,12.84
2022-11-26T11:28:55.363Z,12.83
2022-11-26T11:31:27.315Z,12.97
2022-11-26T11:34:24.164Z,13.03
2022-11-26T11:37:17.531Z,12.87
2022-11-26T11:39:46.105Z,13.03
2022-11-26T11:42:25.456Z,13.07
2022-11-26T11:44:55.367Z,13.05
2022-11-26T11:47:35.939Z,12.75
2022-11-26T11:50:31.054Z,12.72
2022-11-26T11:53:08.444Z,12.92
2022-11-26T11:56:02.405Z,12.81
2022-11-26T11:58:43.673Z,12.94
2022-11-26T12:01:15.293Z,12.78
2022-11-26T12:03:54.751Z,12.54
2022-11-26T12:06:23.392Z,12.40
2022-11-26T12:08:57.912Z,12.30
2022-11-26T12:11:46.761Z,12.24
2022-11-26T12:14:34.580Z,11.97
2022-11-26T12:17:25.121Z,11.70
2022-11-26T12:20:20.210Z,11.56
2022-11-26T12:22:58.406Z,11.50
2022-11-26T12:25:36.899Z,11.48
2022-11-26T12:28:14.876Z,11.44
2022-11-26T12:31:07.092Z,11.49
2022-11-26T12:34:10.171Z,11.56
2022-11-26T12:37:02.621Z,11.52
2022-11-26T12:39:40.416Z,11.38
2022-11-26T12:42:17.988Z,11.40
2022-11-26T12:44:52.203Z,11.39
2022-11-26T12:47:26.519Z,11.39
2022-11-26T12:50:32.677Z,11.20
2022-11-26T12:53:22.653Z,11.11
2022-11-26T12:56:03.480Z,11.12
2022-11-26T12:58:59.683Z,11.36
2022-11-26T13:01:29.589Z,11.43
2022-11-26T13:04:21.594Z,11.31
2022-11-26T13:07:11.311Z,11.44
2022-11-26T13:10:21.635Z,11.48
2022-11-26T13:12:59.647Z,11.32
2022-11-26T13:15:59.467Z,11.30
2022-11-26T13:18:39.044Z,11.24
2022-11-26T13:21:23.665Z,11.21
2022-11-26T13:24:13.585Z,11.21
2022-11-26T13:26:50.747Z,11.33
2022-11-26T13:29:56.288Z,11.27
2022-11-26T13:33:00.704Z,11.23
2022-11-26T13:36:04.951Z,11.29
2022-11-26T13:38:44.982Z,11.20
2022-11-26T13:41:22.023Z,11.24
2022-11-26T13:44:14.495Z,11.18
2022-11-26T13:46:46.195Z,11.14
2022-11-26T13:49:20.075Z,11.13
2022-11-26T13:52:00.834Z,11.15
2022-11-26T13:54:42.602Z,11.18
2022-11-26T13:57:19.612Z,11.23
2022-11-26T13:59:50.852Z,11.21
2022-11-26T14:02:37.611Z,11.18
2022-11-26T14:05:11.801Z,11.41
2022-11-26T14:07:41.236Z,11.77
2022-11-26T14:10:35.470Z,12.08
2022-11-26T14:13:03.973Z,12.37
2022-11-26T14:16:03.061Z,12.77
2022-11-26T14:18:50.567Z,13.03
2022-11-26T14:21:20.805Z,13.25
2022-11-26T14:23:50.723Z,13.38
2022-11-26T14:26:38.517Z,13.27
2022-11-26T14:29:07.249Z,13.24
2022-11-26T14:31:43.544Z,13.30
2022-11-26T14:34:19.659Z,13.12
2022-11-26T14:37:19.275Z,12.85
2022-11-26T14:40:02.326Z,12.61
2022-11-26T14:42:30.976Z,12.39
2022-11-26T14:45:16.167Z,12.25
2022-11-26T14:47:46.754Z,12.14
2022-11-26T14:50:24.651Z,12.05
2022-11-26T14:52:59.251Z,11.96
2022-11-26T14:55:31.006Z,11.83
2022-11-26T14:58:20.228Z,11.82
2022-11-26T15:01:10.735Z,12.06
2022-11-26T15:03:39.267Z,12.19
2022-11-26T15:06:24.426Z,12.08
2022-11-26T15:09:10.514Z,11.98
2022-11-26T15:11:59.471Z,11.70
2022-11-26T15:14:54.123Z,11.43
2022-11-26T15:17:24.680Z,11.61
2022-11-26T15:19:55.522Z,12.10
2022-11-26T15:22:34.339Z,12.29
2022-11-26T15:25:03.540Z,12.41
2022-11-26T15:27:41.337Z,12.83
2022-11-26T15:30:24.716Z,13.22
2022-11-26T15:33:05.246Z,13.34
2022-11-26T15:35:34.140Z,13.10
2022-11-26T15:38:16.955Z,12.80
2022-11-26T15:40:56.086Z,12.69
2022-11-26T15:43:42.796Z,13.55
2022-11-26T15:46:15.366Z,13.98
2022-11-26T15:48:54.166Z,13.08
2022-11-26T15:51:41.372Z,12.13
2022-11-26T15:54:49.709Z,11.37
2022-11-26T15:57:28.303Z,11.13
2022-11-26T16:00:04.381Z,12.03
2022-11-26T16:02:33.398Z,12.50
2022-11-26T16:05:03.922Z,12.81
2022-11-26T16:07:33.635Z,13.04
2022-11-26T16:10:25.160Z,13.20
2022-11-26T16:13:07.661Z,13.26
2022-11-26T16:15:37.373Z,13.13
2022-11-26T16:18:16.604Z,13.06
2022-11-26T16:20:45.513Z,12.98
2022-11-26T16:23:40.809Z,12.90
2022-11-26T16:26:16.425Z,13.01
2022-11-26T16:28:46.330Z,13.53
2022-11-26T16:31:16.855Z,13.72
2022-11-26T16:33:46.102Z,13.64
2022-11-26T16:36:28.627Z,12.93
2022-11-26T16:38:57.546Z,12.11
2022-11-26T16:41:27.417Z,11.69
2022-11-26T16:43:58.470Z,12.02
2022-11-26T16:46:30.649Z,12.13
2022-11-26T16:49:05.262Z,12.04
2022-11-26T16:51:34.244Z,11.91
2022-11-26T16:54:08.940Z,11.88
2022-11-26T16:59:31.869Z,12.08
2022-11-26T17:02:02.372Z,12.08
2022-11-26T17:04:33.278Z,12.04
2022-11-26T17:07:02.826Z,11.88
2022-11-26T17:09:32.106Z,11.72
2022-11-26T17:12:01.031Z,11.56
2022-11-26T17:14:32.872Z,11.48
2022-11-26T17:17:02.790Z,11.62
2022-11-26T17:19:32.205Z,11.59
2022-11-26T17:22:01.195Z,11.40
2022-11-26T17:24:31.638Z,11.16
2022-11-26T17:27:05.333Z,11.17
2022-11-26T17:29:37.134Z,11.25
2022-11-26T17:32:19.180Z,11.18
2022-11-26T17:34:48.582Z,11.07
2022-11-26T17:37:27.967Z,11.00
2022-11-26T17:39:57.531Z,10.97
2022-11-26T17:42:27.720Z,11.53
2022-11-26T17:44:57.379Z,12.34
2022-11-26T17:47:27.391Z,12.71
2022-11-26T17:49:55.945Z,12.81
2022-11-26T17:52:25.149Z,12.77
2022-11-26T17:54:53.950Z,12.85
2022-11-26T17:57:23.206Z,13.10
2022-11-26T17:59:52.148Z,13.15
2022-11-26T18:02:20.846Z,13.14
2022-11-26T18:04:49.809Z,13.29
2022-11-26T18:07:19.773Z,13.33
2022-11-26T18:09:48.388Z,13.18
2022-11-26T18:12:25.741Z,12.98
2022-11-26T18:14:55.736Z,12.84
2022-11-26T18:17:25.585Z,13.21
2022-11-26T18:19:54.305Z,13.41
2022-11-26T18:22:24.811Z,13.93
2022-11-26T18:24:56.954Z,14.17
2022-11-26T18:27:29.134Z,13.36
2022-11-26T18:29:57.761Z,12.49
2022-11-26T18:32:26.554Z,11.84
2022-11-26T18:34:55.640Z,11.59
2022-11-26T18:37:24.541Z,12.60
2022-11-26T18:39:53.337Z,13.70
2022-11-26T18:42:36.615Z,14.33
2022-11-26T18:45:13.308Z,14.51
2022-11-26T18:47:42.318Z,13.55
2022-11-26T18:50:14.129Z,12.64
2022-11-26T18:52:43.075Z,11.93
2022-11-26T18:55:14.666Z,11.72
2022-11-26T18:57:43.620Z,12.95
2022-11-26T19:00:14.572Z,14.06
2022-11-26T19:02:43.846Z,14.29
2022-11-26T19:05:12.852Z,13.45
2022-11-26T19:07:42.441Z,12.58
2022-11-26T19:10:12.311Z,11.89
2022-11-26T19:12:41.459Z,11.63
2022-11-26T19:15:11.380Z,12.70
2022-11-26T19:17:40.386Z,13.82
2022-11-26T19:20:10.030Z,14.34
2022-11-26T19:22:38.902Z,14.32
2022-11-26T19:25:09.672Z,13.38
2022-11-26T19:27:39.743Z,12.33
2022-11-26T19:30:10.364Z,11.73
2022-11-26T19:32:40.368Z,12.44
2022-11-26T19:35:11.203Z,13.30
2022-11-26T19:37:40.398Z,13.92
2022-11-26T19:40:11.117Z,14.06
2022-11-26T19:42:40.433Z,13.23
2022-11-26T19:45:10.639Z,12.28
2022-11-26T19:47:41.732Z,11.54
2022-11-26T19:50:11.980Z,11.26
2022-11-26T19:52:46.521Z,12.25
2022-11-26T19:55:18.103Z,13.30
2022-11-26T19:57:48.338Z,13.87
2022-11-26T20:00:17.949Z,14.31
2022-11-26T20:02:46.896Z,14.34
2022-11-26T20:05:16.594Z,13.38
2022-11-26T20:07:45.615Z,12.36
2022-11-26T20:10:15.655Z,11.55
2022-11-26T20:12:44.658Z,11.17
2022-11-26T20:15:13.548Z,11.93
2022-11-26T20:17:42.143Z,12.83
2022-11-26T20:20:12.670Z,13.55
2022-11-26T20:22:44.175Z,14.04
2022-11-26T20:25:15.876Z,14.19
2022-11-26T20:27:45.058Z,13.33
2022-11-26T20:30:14.573Z,12.39
2022-11-26T20:32:43.458Z,11.65
2022-11-26T20:35:12.163Z,11.37
2022-11-26T20:37:41.759Z,12.17
2022-11-26T20:40:12.464Z,13.06
2022-11-26T20:42:45.964Z,13.65
2022-11-26T20:45:17.603Z,14.02
2022-11-26T20:47:53.496Z,13.90
2022-11-26T20:50:22.722Z,13.02
2022-11-26T20:52:52.196Z,12.10
2022-11-26T20:55:22.312Z,11.56
2022-11-26T20:57:52.143Z,12.07
2022-11-26T21:00:27.187Z,12.78
2022-11-26T21:02:58.228Z,13.27
2022-11-26T21:05:27.778Z,13.49
2022-11-26T21:07:57.022Z,13.52
2022-11-26T21:10:29.063Z,13.44
2022-11-26T21:12:57.904Z,13.51
2022-11-26T21:15:26.745Z,13.65
2022-11-26T21:17:55.952Z,13.69
2022-11-26T21:20:25.896Z,13.29
2022-11-26T21:22:54.846Z,12.22
2022-11-26T21:25:23.743Z,11.72
2022-11-26T21:27:55.678Z,11.79
2022-11-26T21:30:24.956Z,11.79
2022-11-26T21:32:53.571Z,11.80
2022-11-26T21:35:22.261Z,11.85
2022-11-26T21:37:50.628Z,11.88
2022-11-26T21:40:19.931Z,11.94
2022-11-26T21:42:48.934Z,12.08
2022-11-26T21:45:18.036Z,12.11
2022-11-26T21:47:50.269Z,12.14
2022-11-26T21:50:20.630Z,12.15
2022-11-26T21:52:49.718Z,12.01
2022-11-26T21:55:18.297Z,11.70
2022-11-26T21:57:47.498Z,11.61
2022-11-26T22:00:18.344Z,11.58
2022-11-26T22:02:47.051Z,11.99
2022-11-26T22:05:16.031Z,12.45
2022-11-26T22:07:44.769Z,12.68
2022-11-26T22:10:14.098Z,12.86
2022-11-26T22:12:46.207Z,12.76
2022-11-26T22:15:15.265Z,12.64
2022-11-26T22:17:44.304Z,12.77
2022-11-26T22:20:13.551Z,12.45
2022-11-26T22:22:42.156Z,12.15
2022-11-26T22:25:10.634Z,11.95
2022-11-26T22:27:39.400Z,11.96
2022-11-26T22:30:08.333Z,11.89
2022-11-26T22:32:36.781Z,11.76
2022-11-26T22:35:05.605Z,11.70
2022-11-26T22:37:34.100Z,11.70
2022-11-26T22:40:02.527Z,11.84
2022-11-26T22:42:30.907Z,11.98
2022-11-26T22:44:59.136Z,11.87
2022-11-26T22:47:28.280Z,11.76
2022-11-26T22:49:56.568Z,11.74
2022-11-26T22:52:25.243Z,11.68
2022-11-26T22:54:53.723Z,11.70
2022-11-26T22:57:25.315Z,11.63
2022-11-26T22:59:54.279Z,11.84
2022-11-26T23:02:22.870Z,12.02
2022-11-26T23:04:52.497Z,12.07
2022-11-26T23:07:21.017Z,12.21
2022-11-26T23:09:49.682Z,12.46
2022-11-26T23:12:18.419Z,12.65
2022-11-26T23:14:47.324Z,12.63
2022-11-26T23:17:15.695Z,12.44
2022-11-26T23:19:44.205Z,12.29
2022-11-26T23:22:12.444Z,12.30
2022-11-26T23:24:40.830Z,12.36
2022-11-26T23:27:09.213Z,12.32
2022-11-26T23:29:37.689Z,12.27
2022-11-26T23:32:06.375Z,12.21
2022-11-26T23:34:35.374Z,12.07
2022-11-26T23:37:04.130Z,12.07
2022-11-26T23:39:32.548Z,12.20
2022-11-26T23:42:00.914Z,12.38
2022-11-26T23:44:29.179Z,12.39
2022-11-26T23:46:57.465Z,12.32
2022-11-26T23:49:25.861Z,12.43
2022-11-26T23:51:54.306Z,12.68
2022-11-26T23:54:22.488Z,12.98
2022-11-26T23:56:51.083Z,13.02
2022-11-26T23:59:19.454Z,12.96
